CSM8 weather

Sept-Îles/Lac Des Rapides Seaplane Base
Quebec, Canada

Public forecast

Using degrees Celsius for public forecast. Weather courtesy of forecast.io.

METAR (pilot weather report)

Closest report is Sept-Îles Airport, 7.3 nm (13.6 km) SE. Retrieved 2019/05/26 17:18 UTC (38 minutes ago):

CYZV 261718Z 09013G18KT 20SM FEW006 SCT050 OVC070 08/06 A2977 RMK SF1SC3AC5 SF TR SLP085

TAF (pilot weather forecast)

Closest forecast is Sept-Îles Airport, 7.3 nm (13.6 km) SE. Retrieved 2019/05/26 12:42 UTC (5 hours ago):

TAF CYZV 261138Z 2612/2712 08010G20KT P6SM -RA FEW015 OVC080 FM261400 08012KT P6SM -RA SCT010 OVC025 TEMPO 2614/2620 5SM -RA BR BKN010 OVC025 FM262000 08012KT 3SM -RA BR BKN005 OVC010 TEMPO 2620/2624 6SM -RA BR FEW005 OVC010 FM270000 05008KT 1/2SM -RA FG VV002 FM270800 34005KT P6SM -RA FEW005 OVC030 RMK NXT FCST BY 261800Z